Borba, Brazil
Current Conditions -  °F | °C
As of 4:00 PM on Saturday 22 Nov 2014 (Local Time) from SBPK Reporting Station
Broken Clouds Broken Clouds  
Wind Chill: 75°   Ceiling: 4500
Heat Index: 75°   Visibility: 6mi
Dew Point: 55°   Wind: 16mph
Humidity: 50%   Direction: 270°W
Pressure: 29.77"   Gusts: NA
Location:  30.97°S, 52.38°W
Report Text: SBPK 221800Z 27014KT 9999 BKN045 BKN060 24/13 Q1008
Loading
Personal Weather Stations






























Interactive Weather Map New forecast layout! Learn more

10-Day Weather Forecast

Advertisements
Track Severe Weather on mobile